Terminal Aerodrome Forecast
Issued by NWS

Home | Current Version | Previous Version | Text Only | Print | Product List | Glossary On
Versions: 1 2 3 4 5 6 7 8 9 10 11 12 13 14 15 16 17 18 19 20 21 22 23 24 25
000
FTUS42 KMFL 251531 AAA
TAFOPF
TAF AMD
KOPF 251531Z 2516/2612 05008KT P6SM VCSH SCT025 SCT250
     FM251700 08010KT P6SM VCTS SCT025CB BKN045
     FM260100 06006KT P6SM VCSH SCT030=

USA.gov is the U.S. government's official web portal to all federal, state and local government web resources and services.